TNCM/SXM METAR and TAF weather

Enter ICAO airport designator
Station Type Date Time Source
TNCM METAR 2021/07/29 02:00 UTC NOAA

TNCM 290200Z 07011KT 9999 SCT018 27/23 Q1018 RERA


Station Type Date Time Source
TNCM Decoded METAR 2021/07/29 02:00 UTC NOAA

Juliana Airport, Saint Maarten, Netherlands Antilles (TNCM) 18-03N 063-07W 9M
Jul 28, 2021 - 10:00 PM EDT / 2021.07.29 0200 UTC
Wind: from the ENE (070 degrees) at 13 MPH (11 KT):0
Visibility: greater than 7 mile(s):0
Sky conditions: partly cloudy
Temperature: 80 F (27 C)
Dew Point: 73 F (23 C)
Relative Humidity: 78%
Pressure (altimeter): 30.06 in. Hg (1018 hPa)
ob: TNCM 290200Z 07011KT 9999 SCT018 27/23 Q1018 RERA
cycle: 2

Station Type Date Time Source
TNCM TAF 2021/07/28 18:24 UTC NOAA

TAF TNCM 281720Z 2818/2918 10010KT P6SM FEW020
FM281900 09010KT P6SM SCT015
FM290200 10010KT P6SM FEW020

Example: see airport list